createdAt,value
2022-12-03T00:01:38.974Z,7.90
2022-12-03T00:04:07.960Z,7.89
2022-12-03T00:06:36.016Z,7.98
2022-12-03T00:09:04.985Z,8.01
2022-12-03T00:11:33.017Z,7.86
2022-12-03T00:14:00.939Z,7.89
2022-12-03T00:16:28.818Z,7.93
2022-12-03T00:18:56.857Z,7.92
2022-12-03T00:21:25.090Z,7.95
2022-12-03T00:23:53.047Z,7.89
2022-12-03T00:26:21.245Z,7.94
2022-12-03T00:28:49.762Z,7.99
2022-12-03T00:31:18.759Z,7.94
2022-12-03T00:33:46.663Z,7.87
2022-12-03T00:36:14.564Z,7.80
2022-12-03T00:38:42.530Z,7.82
2022-12-03T00:41:10.561Z,7.83
2022-12-03T00:43:38.461Z,7.86
2022-12-03T00:46:06.557Z,7.79
2022-12-03T00:48:37.134Z,7.69
2022-12-03T00:51:05.262Z,7.71
2022-12-03T00:53:33.337Z,7.73
2022-12-03T00:56:01.857Z,7.79
2022-12-03T00:58:29.789Z,7.74
2022-12-03T01:00:58.209Z,7.81
2022-12-03T01:03:26.383Z,7.82
2022-12-03T01:05:54.325Z,7.86
2022-12-03T01:08:22.255Z,7.86
2022-12-03T01:10:50.479Z,7.86
2022-12-03T01:13:18.423Z,7.73
2022-12-03T01:15:46.369Z,7.87
2022-12-03T01:18:14.432Z,7.86
2022-12-03T01:20:42.409Z,7.93
2022-12-03T01:23:10.332Z,7.87
2022-12-03T01:25:38.301Z,7.96
2022-12-03T01:28:06.184Z,7.84
2022-12-03T01:30:54.571Z,7.82
2022-12-03T01:33:22.515Z,7.93
2022-12-03T01:35:50.429Z,7.97
2022-12-03T01:38:18.354Z,8.01
2022-12-03T01:40:46.346Z,8.02
2022-12-03T01:43:14.265Z,8.03
2022-12-03T01:45:42.267Z,7.91
2022-12-03T01:48:16.918Z,8.05
2022-12-03T01:50:45.567Z,7.99
2022-12-03T01:53:16.912Z,7.99
2022-12-03T01:55:48.752Z,8.02
2022-12-03T01:58:19.959Z,7.98
2022-12-03T02:00:47.923Z,7.94
2022-12-03T02:03:21.346Z,7.90
2022-12-03T02:05:49.786Z,7.91
2022-12-03T02:08:31.937Z,7.85
2022-12-03T02:11:07.979Z,7.84
2022-12-03T02:13:36.693Z,7.89
2022-12-03T02:16:05.022Z,7.83
2022-12-03T02:18:32.957Z,7.84
2022-12-03T02:21:25.144Z,7.80
2022-12-03T02:24:00.744Z,7.77
2022-12-03T02:26:30.026Z,7.82
2022-12-03T02:28:58.242Z,7.85
2022-12-03T02:31:26.407Z,7.88
2022-12-03T02:33:54.532Z,7.75
2022-12-03T02:36:22.765Z,7.83
2022-12-03T02:38:51.335Z,7.74
2022-12-03T02:41:40.077Z,7.64
2022-12-03T02:44:09.237Z,7.58
2022-12-03T02:46:37.443Z,7.61
2022-12-03T02:49:06.743Z,7.58
2022-12-03T02:51:35.342Z,7.75
2022-12-03T02:54:03.916Z,7.82
2022-12-03T02:56:33.210Z,7.83
2022-12-03T02:59:03.511Z,7.79
2022-12-03T03:01:31.654Z,7.90
2022-12-03T03:03:59.693Z,7.92
2022-12-03T03:06:27.621Z,7.82
2022-12-03T03:08:55.813Z,7.82
2022-12-03T03:11:24.616Z,7.85
2022-12-03T03:13:52.551Z,7.87
2022-12-03T03:16:20.693Z,7.83
2022-12-03T03:18:49.404Z,7.88
2022-12-03T03:21:17.228Z,7.89
2022-12-03T03:23:45.176Z,7.87
2022-12-03T03:26:14.550Z,7.93
2022-12-03T03:28:51.946Z,7.89
2022-12-03T03:31:23.306Z,7.91
2022-12-03T03:33:51.975Z,7.94
2022-12-03T03:36:20.447Z,7.94
2022-12-03T03:38:49.163Z,7.97
2022-12-03T03:41:17.822Z,8.07
2022-12-03T03:43:48.368Z,8.05
2022-12-03T03:46:17.706Z,8.12
2022-12-03T03:48:45.915Z,8.17
2022-12-03T03:51:14.798Z,8.19
2022-12-03T03:53:48.080Z,8.19
2022-12-03T03:56:20.751Z,8.23
2022-12-03T03:58:48.837Z,8.27
2022-12-03T04:01:18.178Z,8.15
2022-12-03T04:03:46.296Z,8.05
2022-12-03T04:06:14.179Z,8.19
2022-12-03T04:08:42.364Z,8.07
2022-12-03T04:11:28.913Z,8.07
2022-12-03T04:13:56.868Z,8.00
2022-12-03T04:16:24.889Z,7.92
2022-12-03T04:18:52.952Z,7.90
2022-12-03T04:21:42.178Z,7.91
2022-12-03T04:24:12.067Z,7.92
2022-12-03T04:26:58.590Z,7.85
2022-12-03T04:29:26.704Z,7.83
2022-12-03T04:32:13.171Z,7.81
2022-12-03T04:34:59.440Z,7.84
2022-12-03T04:37:27.828Z,7.86
2022-12-03T04:39:55.790Z,7.77
2022-12-03T04:42:23.780Z,7.87
2022-12-03T04:44:52.305Z,7.88
2022-12-03T04:47:22.285Z,7.87
2022-12-03T04:49:51.749Z,7.89
2022-12-03T04:52:20.995Z,7.93
2022-12-03T04:54:49.034Z,7.83
2022-12-03T04:57:17.088Z,7.85
2022-12-03T04:59:45.078Z,7.83
2022-12-03T05:02:13.025Z,7.79
2022-12-03T05:04:41.005Z,7.76
2022-12-03T05:07:08.942Z,7.86
2022-12-03T05:09:36.894Z,7.84
2022-12-03T05:12:05.079Z,7.87
2022-12-03T05:14:32.971Z,7.88
2022-12-03T05:17:01.143Z,7.92
2022-12-03T05:19:47.840Z,7.92
2022-12-03T05:22:15.902Z,7.79
2022-12-03T05:24:43.838Z,7.78
2022-12-03T05:27:11.672Z,7.82
2022-12-03T05:29:39.606Z,7.79
2022-12-03T05:32:07.510Z,7.84
2022-12-03T05:34:35.402Z,7.73
2022-12-03T05:37:03.527Z,7.85
2022-12-03T05:39:31.546Z,7.88
2022-12-03T05:42:17.826Z,7.90
2022-12-03T05:44:45.750Z,7.96
2022-12-03T05:47:13.679Z,8.00
2022-12-03T05:49:41.653Z,7.98
2022-12-03T05:52:09.582Z,7.99
2022-12-03T05:54:37.440Z,8.04
2022-12-03T05:57:05.974Z,8.00
2022-12-03T05:59:34.532Z,7.95
2022-12-03T06:02:02.818Z,7.91
2022-12-03T06:04:30.843Z,8.10
2022-12-03T06:06:59.111Z,8.19
2022-12-03T06:09:27.059Z,8.36
2022-12-03T06:11:54.996Z,8.45
2022-12-03T06:14:23.031Z,8.52
2022-12-03T06:16:50.992Z,8.58
2022-12-03T06:19:18.944Z,8.57
2022-12-03T06:21:46.823Z,8.46
2022-12-03T06:24:14.832Z,8.64
2022-12-03T06:26:42.796Z,8.67
2022-12-03T06:29:10.730Z,8.71
2022-12-03T06:31:38.657Z,8.64
2022-12-03T06:34:06.645Z,8.63
2022-12-03T06:36:34.558Z,8.59
2022-12-03T06:39:02.488Z,8.60
2022-12-03T06:41:30.638Z,8.60
2022-12-03T06:43:58.584Z,8.77
2022-12-03T06:46:26.540Z,8.81
2022-12-03T06:48:54.618Z,8.64
2022-12-03T06:51:22.603Z,8.89
2022-12-03T06:53:50.445Z,8.82
2022-12-03T06:56:22.041Z,8.72
2022-12-03T06:58:50.304Z,8.67
2022-12-03T07:01:18.409Z,8.75
2022-12-03T07:03:46.800Z,8.82
2022-12-03T07:06:14.814Z,8.83
2022-12-03T07:08:42.787Z,8.80
2022-12-03T07:11:30.636Z,8.95
2022-12-03T07:14:05.179Z,8.90
2022-12-03T07:16:35.625Z,8.92
2022-12-03T07:19:05.425Z,8.97
2022-12-03T07:21:33.648Z,8.99
2022-12-03T07:24:01.784Z,9.04
2022-12-03T07:26:30.033Z,9.14
2022-12-03T07:28:58.225Z,9.20
2022-12-03T07:31:26.241Z,9.22
2022-12-03T07:33:54.313Z,9.27
2022-12-03T07:36:22.293Z,9.25
2022-12-03T07:38:50.271Z,9.29
2022-12-03T07:41:18.240Z,9.29
2022-12-03T07:43:46.303Z,9.39
2022-12-03T07:46:14.245Z,9.34
2022-12-03T07:48:42.132Z,9.25
2022-12-03T07:51:15.207Z,9.24
2022-12-03T07:53:43.603Z,9.17
2022-12-03T07:56:11.570Z,9.36
2022-12-03T07:58:40.214Z,9.19
2022-12-03T08:01:08.600Z,9.19
2022-12-03T08:03:36.627Z,9.17
2022-12-03T08:06:05.274Z,9.28
2022-12-03T08:08:33.174Z,9.23
2022-12-03T08:11:02.298Z,9.26
2022-12-03T08:13:30.392Z,9.43
2022-12-03T08:16:02.136Z,9.43
2022-12-03T08:18:30.150Z,9.55
2022-12-03T08:20:58.433Z,9.57
2022-12-03T08:23:26.505Z,9.49
2022-12-03T08:25:54.490Z,9.66
2022-12-03T08:28:26.917Z,9.68
2022-12-03T08:31:02.773Z,9.87
2022-12-03T08:33:35.935Z,9.95
2022-12-03T08:36:14.940Z,9.97
2022-12-03T08:38:48.399Z,10.16
2022-12-03T08:41:36.860Z,10.17
2022-12-03T08:44:38.993Z,10.12
2022-12-03T08:47:11.155Z,10.11
2022-12-03T08:49:40.615Z,10.30
2022-12-03T08:52:16.609Z,10.28
2022-12-03T08:54:51.823Z,10.50
2022-12-03T08:57:28.067Z,10.46
2022-12-03T09:00:21.274Z,10.61
2022-12-03T09:02:54.858Z,10.21
2022-12-03T09:05:27.505Z,10.29
2022-12-03T09:07:55.488Z,10.40
2022-12-03T09:10:23.401Z,10.53
2022-12-03T09:12:51.489Z,10.58
2022-12-03T09:15:19.322Z,10.56
2022-12-03T09:17:47.389Z,10.71
2022-12-03T09:20:15.401Z,10.60
2022-12-03T09:22:43.246Z,10.45
2022-12-03T09:25:11.284Z,10.52
2022-12-03T09:27:39.166Z,10.65
2022-12-03T09:30:07.599Z,10.59
2022-12-03T09:32:35.482Z,10.46
2022-12-03T09:35:03.713Z,10.48
2022-12-03T09:37:31.615Z,10.65
2022-12-03T09:39:59.615Z,10.48
2022-12-03T09:42:27.689Z,10.74
2022-12-03T09:44:56.068Z,10.58
2022-12-03T09:47:25.360Z,10.45
2022-12-03T09:49:53.862Z,10.60
2022-12-03T09:52:27.591Z,10.73
2022-12-03T09:55:05.674Z,10.57
2022-12-03T09:57:33.619Z,10.64
2022-12-03T10:00:01.786Z,10.61
2022-12-03T10:02:31.320Z,10.83
2022-12-03T10:04:59.369Z,10.80
2022-12-03T10:07:27.489Z,10.83
2022-12-03T10:09:55.774Z,10.71
2022-12-03T10:12:25.179Z,10.94
2022-12-03T10:14:54.396Z,10.99
2022-12-03T10:17:22.432Z,11.07
2022-12-03T10:19:50.786Z,11.09
2022-12-03T10:22:18.951Z,11.17
2022-12-03T10:25:03.924Z,11.37
2022-12-03T10:27:32.901Z,11.18
2022-12-03T10:30:03.529Z,11.40
2022-12-03T10:32:45.981Z,11.36
2022-12-03T10:35:20.970Z,11.25
2022-12-03T10:37:55.018Z,11.43
2022-12-03T10:40:46.094Z,11.11
2022-12-03T10:43:20.089Z,11.27
2022-12-03T10:46:03.344Z,11.17
2022-12-03T10:48:32.259Z,11.45
2022-12-03T10:51:13.730Z,11.65
2022-12-03T10:53:42.265Z,11.73
2022-12-03T10:56:29.050Z,11.79
2022-12-03T10:59:01.901Z,11.87
2022-12-03T11:01:31.932Z,11.70
2022-12-03T11:04:09.047Z,11.86
2022-12-03T11:06:38.191Z,11.72
2022-12-03T11:09:18.817Z,11.82
2022-12-03T11:11:47.717Z,11.75
2022-12-03T11:14:57.042Z,11.75
2022-12-03T11:17:48.419Z,11.46
2022-12-03T11:20:26.237Z,11.40
2022-12-03T11:22:59.942Z,11.44
2022-12-03T11:25:33.679Z,11.24
2022-12-03T11:28:13.411Z,11.42
2022-12-03T11:30:51.186Z,11.50
2022-12-03T11:33:34.347Z,11.65
2022-12-03T11:36:03.977Z,11.73
2022-12-03T11:38:38.524Z,11.44
2022-12-03T11:41:07.458Z,11.60
2022-12-03T11:44:20.345Z,11.67
2022-12-03T11:46:49.826Z,11.65
2022-12-03T11:49:34.198Z,11.74
2022-12-03T11:52:18.130Z,11.54
2022-12-03T11:54:56.801Z,11.66
2022-12-03T11:57:39.942Z,11.83
2022-12-03T12:00:21.421Z,11.89
2022-12-03T12:02:52.122Z,11.75
2022-12-03T12:05:25.110Z,11.70
2022-12-03T12:07:54.491Z,11.65
2022-12-03T12:10:46.220Z,11.87
2022-12-03T12:13:33.965Z,11.72
2022-12-03T12:16:05.319Z,11.75
2022-12-03T12:18:42.609Z,11.72
2022-12-03T12:21:47.949Z,11.80
2022-12-03T12:24:47.794Z,11.66
2022-12-03T12:27:23.989Z,11.78
2022-12-03T12:29:59.397Z,11.70
2022-12-03T12:32:55.637Z,11.56
2022-12-03T12:35:26.465Z,11.54
2022-12-03T12:38:00.508Z,11.43
2022-12-03T12:40:32.042Z,11.47
2022-12-03T12:43:11.811Z,11.42
2022-12-03T12:45:43.590Z,11.22
2022-12-03T12:48:23.746Z,11.18
2022-12-03T12:51:01.128Z,11.07
2022-12-03T12:53:41.388Z,11.11
2022-12-03T12:56:19.466Z,11.17
2022-12-03T12:58:49.257Z,10.87
2022-12-03T13:01:22.670Z,10.77
2022-12-03T13:03:52.617Z,10.86
2022-12-03T13:06:33.372Z,10.71
2022-12-03T13:09:02.960Z,10.74
2022-12-03T13:11:42.600Z,10.77
2022-12-03T13:14:22.716Z,10.96
2022-12-03T13:16:54.632Z,10.80
2022-12-03T13:19:39.612Z,10.86
2022-12-03T13:22:20.652Z,10.81
2022-12-03T13:24:54.523Z,10.97
2022-12-03T13:27:29.865Z,10.70
2022-12-03T13:30:16.192Z,10.63
2022-12-03T13:32:44.630Z,10.91
2022-12-03T13:35:27.117Z,10.83
2022-12-03T13:37:55.052Z,10.93
2022-12-03T13:40:41.557Z,10.94
2022-12-03T13:43:18.939Z,11.00
2022-12-03T13:45:54.484Z,11.02
2022-12-03T13:48:25.348Z,11.07
2022-12-03T13:50:56.407Z,11.06
2022-12-03T13:53:26.719Z,10.94
2022-12-03T13:56:19.705Z,10.94
2022-12-03T13:58:47.581Z,11.16
2022-12-03T14:01:15.508Z,11.12
2022-12-03T14:03:44.785Z,10.99
2022-12-03T14:06:12.613Z,11.08
2022-12-03T14:08:40.619Z,11.10
2022-12-03T14:11:08.864Z,11.11
2022-12-03T14:13:38.391Z,10.95
2022-12-03T14:16:07.950Z,11.05
2022-12-03T14:18:35.886Z,11.13
2022-12-03T14:21:03.858Z,11.13
2022-12-03T14:23:31.704Z,11.06
2022-12-03T14:25:59.585Z,11.22
2022-12-03T14:28:27.732Z,11.43
2022-12-03T14:30:55.707Z,11.44
2022-12-03T14:33:23.878Z,11.37
2022-12-03T14:35:54.465Z,11.38
2022-12-03T14:38:22.421Z,11.19
2022-12-03T14:40:50.352Z,11.21
2022-12-03T14:43:18.200Z,11.12
2022-12-03T14:45:46.315Z,11.10
2022-12-03T14:48:14.294Z,11.01
2022-12-03T14:50:42.239Z,10.98
2022-12-03T14:53:10.209Z,10.89
2022-12-03T14:55:38.533Z,10.88
2022-12-03T14:58:06.570Z,10.89
2022-12-03T15:00:34.493Z,10.83
2022-12-03T15:03:02.377Z,10.84
2022-12-03T15:05:30.382Z,10.79
2022-12-03T15:07:58.242Z,10.78
2022-12-03T15:10:26.085Z,10.79
2022-12-03T15:12:53.925Z,10.73
2022-12-03T15:15:24.098Z,10.62
2022-12-03T15:17:51.955Z,10.76
2022-12-03T15:20:19.946Z,10.95
2022-12-03T15:22:47.873Z,10.92
2022-12-03T15:25:16.216Z,11.03
2022-12-03T15:27:44.253Z,11.05
2022-12-03T15:30:12.289Z,10.95
2022-12-03T15:32:40.759Z,11.09
2022-12-03T15:35:09.038Z,10.99
2022-12-03T15:37:37.011Z,10.98
2022-12-03T15:40:05.877Z,11.00
2022-12-03T15:42:33.754Z,11.05
2022-12-03T15:45:01.804Z,11.05
2022-12-03T15:47:31.075Z,11.14
2022-12-03T15:49:59.257Z,11.11
2022-12-03T15:52:27.096Z,11.03
2022-12-03T15:54:55.448Z,11.14
2022-12-03T15:57:23.870Z,11.20
2022-12-03T15:59:52.187Z,11.25
2022-12-03T16:02:20.568Z,11.09
2022-12-03T16:04:48.626Z,11.05
2022-12-03T16:07:16.627Z,11.11
2022-12-03T16:09:44.518Z,11.15
2022-12-03T16:12:12.390Z,11.24
2022-12-03T16:14:40.214Z,11.23
2022-12-03T16:17:08.306Z,11.27
2022-12-03T16:19:36.678Z,11.09
2022-12-03T16:22:04.548Z,11.06
2022-12-03T16:24:32.470Z,11.12
2022-12-03T16:27:00.507Z,10.98
2022-12-03T16:29:28.361Z,10.80
2022-12-03T16:31:56.465Z,10.75
2022-12-03T16:34:24.415Z,10.80
2022-12-03T16:36:52.412Z,10.62
2022-12-03T16:39:20.309Z,10.61
2022-12-03T16:41:48.178Z,10.70
2022-12-03T16:44:42.188Z,10.89
2022-12-03T16:47:10.058Z,10.83
2022-12-03T16:49:38.039Z,10.90
2022-12-03T16:52:06.022Z,10.88
2022-12-03T16:54:33.888Z,10.99
2022-12-03T16:57:01.703Z,10.82
2022-12-03T16:59:29.630Z,10.98
2022-12-03T17:01:57.631Z,10.89
2022-12-03T17:04:25.557Z,10.73
2022-12-03T17:06:53.425Z,10.83
2022-12-03T17:09:21.415Z,10.62
2022-12-03T17:11:49.269Z,10.65
2022-12-03T17:14:17.159Z,10.68
2022-12-03T17:16:45.119Z,10.71
2022-12-03T17:19:13.351Z,10.90
2022-12-03T17:21:42.102Z,10.85
2022-12-03T17:24:10.006Z,10.86
2022-12-03T17:26:39.546Z,10.79
2022-12-03T17:29:08.275Z,10.68
2022-12-03T17:31:43.871Z,10.47
2022-12-03T17:34:19.895Z,10.29
2022-12-03T17:36:50.049Z,10.31
2022-12-03T17:39:21.948Z,10.31
2022-12-03T17:41:51.954Z,10.30
2022-12-03T17:44:22.236Z,10.20
2022-12-03T17:46:52.225Z,10.13
2022-12-03T17:49:25.639Z,10.08
2022-12-03T17:51:59.490Z,9.92
2022-12-03T17:54:49.134Z,9.94
2022-12-03T17:57:28.864Z,9.93
2022-12-03T17:59:57.705Z,9.97
2022-12-03T18:02:26.683Z,9.83
2022-12-03T18:04:57.795Z,9.81
2022-12-03T18:07:40.784Z,9.84
2022-12-03T18:10:19.765Z,9.91
2022-12-03T18:13:01.716Z,9.95
2022-12-03T18:15:34.405Z,9.88
2022-12-03T18:18:04.021Z,9.94
2022-12-03T18:20:35.253Z,9.82
2022-12-03T18:23:04.975Z,9.90
2022-12-03T18:25:34.247Z,9.80
2022-12-03T18:28:04.182Z,9.97
2022-12-03T18:30:37.926Z,9.99
2022-12-03T18:33:09.499Z,9.92
2022-12-03T18:35:45.162Z,9.97
2022-12-03T18:38:21.844Z,9.97
2022-12-03T18:40:59.543Z,10.05
2022-12-03T18:43:32.964Z,9.93
2022-12-03T18:46:07.744Z,9.99
2022-12-03T18:49:00.743Z,9.99
2022-12-03T18:51:34.476Z,9.97
2022-12-03T18:54:48.164Z,10.04
2022-12-03T18:57:18.778Z,9.95
2022-12-03T18:59:53.655Z,9.94
2022-12-03T19:03:01.763Z,9.86
2022-12-03T19:05:20.043Z,9.95
2022-12-03T19:07:55.385Z,9.95
2022-12-03T19:10:24.857Z,10.02
2022-12-03T19:12:52.758Z,9.93
2022-12-03T19:15:21.459Z,9.86
2022-12-03T19:17:50.223Z,9.82
2022-12-03T19:20:19.798Z,9.85
2022-12-03T19:22:52.785Z,9.84
2022-12-03T19:25:20.946Z,9.84
2022-12-03T19:27:55.805Z,9.79
2022-12-03T19:30:31.027Z,9.85
2022-12-03T19:33:07.306Z,9.76
2022-12-03T19:35:51.236Z,9.75
2022-12-03T19:38:35.476Z,9.89
2022-12-03T19:41:23.001Z,9.79
2022-12-03T19:44:09.275Z,9.83
2022-12-03T19:46:49.057Z,9.74
2022-12-03T19:49:32.144Z,9.79
2022-12-03T19:52:00.920Z,9.81
2022-12-03T19:54:28.966Z,9.76
2022-12-03T19:56:57.123Z,9.82
2022-12-03T19:59:25.426Z,9.82
2022-12-03T20:01:53.703Z,9.83
2022-12-03T20:04:21.636Z,9.80
2022-12-03T20:06:49.583Z,9.78
2022-12-03T20:09:24.594Z,9.77
2022-12-03T20:11:58.906Z,9.80
2022-12-03T20:14:26.771Z,9.83
2022-12-03T20:16:55.713Z,9.83
2022-12-03T20:19:24.088Z,9.86
2022-12-03T20:21:51.997Z,9.91
2022-12-03T20:24:19.935Z,9.85
2022-12-03T20:26:47.767Z,9.80
2022-12-03T20:29:16.003Z,9.81
2022-12-03T20:31:44.472Z,9.70
2022-12-03T20:34:12.754Z,9.84
2022-12-03T20:36:43.228Z,9.85
2022-12-03T20:39:12.583Z,9.71
2022-12-03T20:41:40.589Z,9.80
2022-12-03T20:44:08.593Z,9.97
2022-12-03T20:46:39.978Z,9.99
2022-12-03T20:49:10.736Z,9.99
2022-12-03T20:51:44.515Z,9.91
2022-12-03T20:54:25.424Z,9.91
2022-12-03T20:57:17.200Z,10.08
2022-12-03T20:59:50.980Z,10.13
2022-12-03T21:02:19.177Z,10.01
2022-12-03T21:04:47.342Z,10.13
2022-12-03T21:07:15.182Z,10.08
2022-12-03T21:09:43.076Z,10.17
2022-12-03T21:12:11.116Z,10.37
2022-12-03T21:14:40.295Z,10.24
2022-12-03T21:17:09.601Z,10.46
2022-12-03T21:19:38.256Z,10.43
2022-12-03T21:22:07.589Z,10.39
2022-12-03T21:24:35.805Z,10.29
2022-12-03T21:27:05.334Z,10.39
2022-12-03T21:29:33.250Z,10.44
2022-12-03T21:32:04.514Z,10.56
2022-12-03T21:34:36.405Z,10.53
2022-12-03T21:37:04.772Z,10.64
2022-12-03T21:39:32.790Z,10.71
2022-12-03T21:42:19.370Z,10.61
2022-12-03T21:44:48.734Z,10.71
2022-12-03T21:47:17.096Z,10.62
2022-12-03T21:49:45.045Z,10.92
2022-12-03T21:52:12.877Z,10.72
2022-12-03T21:54:40.771Z,10.71
2022-12-03T21:57:08.621Z,10.68
2022-12-03T21:59:36.709Z,10.85
2022-12-03T22:02:04.916Z,10.74
2022-12-03T22:04:33.003Z,10.96
2022-12-03T22:07:00.893Z,10.80
2022-12-03T22:09:28.931Z,10.81
2022-12-03T22:11:59.382Z,10.75
2022-12-03T22:14:28.185Z,10.75
2022-12-03T22:16:56.430Z,10.92
2022-12-03T22:19:25.693Z,10.83
2022-12-03T22:21:53.507Z,10.94
2022-12-03T22:24:21.631Z,10.92
2022-12-03T22:26:49.645Z,10.94
2022-12-03T22:29:17.484Z,11.02
2022-12-03T22:31:45.371Z,10.92
2022-12-03T22:34:13.349Z,10.78
2022-12-03T22:36:41.307Z,10.85
2022-12-03T22:39:09.206Z,10.83
2022-12-03T22:41:37.097Z,10.82
2022-12-03T22:44:05.230Z,10.77
2022-12-03T22:46:33.407Z,10.86
2022-12-03T22:49:06.661Z,11.09
2022-12-03T22:51:35.771Z,10.99
2022-12-03T22:54:04.209Z,10.83
2022-12-03T22:56:32.819Z,11.08
2022-12-03T22:59:01.057Z,10.89
2022-12-03T23:01:30.826Z,10.94
2022-12-03T23:03:59.573Z,10.90
2022-12-03T23:06:28.806Z,11.00
2022-12-03T23:08:58.351Z,10.94
2022-12-03T23:11:27.073Z,10.87
2022-12-03T23:13:55.161Z,10.75
2022-12-03T23:16:26.356Z,10.86
2022-12-03T23:18:54.864Z,11.04
2022-12-03T23:21:29.517Z,11.07
2022-12-03T23:24:03.535Z,10.99
2022-12-03T23:26:34.982Z,11.13
2022-12-03T23:29:03.068Z,10.99
2022-12-03T23:31:32.790Z,10.92
2022-12-03T23:34:01.185Z,11.03
2022-12-03T23:36:32.396Z,11.13
2022-12-03T23:39:00.659Z,10.99
2022-12-03T23:41:28.812Z,11.01
2022-12-03T23:43:57.175Z,11.05
2022-12-03T23:46:27.670Z,11.05
2022-12-03T23:48:56.333Z,10.89
2022-12-03T23:51:25.591Z,10.81
2022-12-03T23:53:54.989Z,10.89
2022-12-03T23:56:25.696Z,10.91
2022-12-03T23:58:53.864Z,10.84
